createdAt,value
2023-03-29T00:00:01.155Z,29.26
2023-03-29T00:02:42.214Z,29.31
2023-03-29T00:05:13.633Z,29.36
2023-03-29T00:07:43.994Z,29.40
2023-03-29T00:10:14.776Z,29.45
2023-03-29T00:12:45.607Z,29.48
2023-03-29T00:15:16.194Z,29.55
2023-03-29T00:17:46.543Z,29.56
2023-03-29T00:20:16.931Z,29.59
2023-03-29T00:22:48.235Z,29.62
2023-03-29T00:25:18.534Z,29.66
2023-03-29T00:27:49.173Z,29.69
2023-03-29T00:30:19.681Z,29.70
2023-03-29T00:32:49.944Z,29.73
2023-03-29T00:35:20.328Z,29.76
2023-03-29T00:37:52.304Z,29.78
2023-03-29T00:40:22.904Z,29.81
2023-03-29T00:42:52.933Z,29.79
2023-03-29T00:45:24.126Z,29.79
2023-03-29T00:48:01.368Z,29.80
2023-03-29T00:50:33.836Z,29.83
2023-03-29T00:53:06.768Z,29.87
2023-03-29T00:55:44.428Z,29.88
2023-03-29T00:58:17.574Z,29.93
2023-03-29T01:00:53.577Z,29.94
2023-03-29T01:03:28.822Z,29.96
2023-03-29T01:06:02.664Z,29.99
2023-03-29T01:08:35.193Z,30.01
2023-03-29T01:11:12.977Z,30.02
2023-03-29T01:13:46.114Z,30.05
2023-03-29T01:16:17.057Z,30.06
2023-03-29T01:18:48.649Z,30.08
2023-03-29T01:21:22.804Z,30.10
2023-03-29T01:24:14.573Z,30.11
2023-03-29T01:26:56.902Z,30.14
2023-03-29T01:29:47.172Z,30.15
2023-03-29T01:32:23.703Z,30.17
2023-03-29T01:35:14.507Z,30.20
2023-03-29T01:37:51.193Z,30.22
2023-03-29T01:40:21.459Z,30.23
2023-03-29T01:42:54.717Z,30.26
2023-03-29T01:45:48.410Z,30.28
2023-03-29T01:48:26.893Z,30.31
2023-03-29T01:51:01.573Z,30.33
2023-03-29T01:53:37.194Z,30.36
2023-03-29T01:56:15.529Z,30.36
2023-03-29T01:58:52.654Z,30.40
2023-03-29T02:01:24.919Z,30.43
2023-03-29T02:03:57.766Z,30.45
2023-03-29T02:06:29.320Z,30.47
2023-03-29T02:08:59.683Z,30.48
2023-03-29T02:11:30.826Z,30.52
2023-03-29T02:14:01.394Z,30.54
2023-03-29T02:16:36.359Z,30.56
2023-03-29T02:19:09.145Z,30.59
2023-03-29T02:21:45.501Z,30.62
2023-03-29T02:24:18.416Z,30.64
2023-03-29T02:26:49.343Z,30.66
2023-03-29T02:29:19.636Z,30.68
2023-03-29T02:31:55.439Z,30.72
2023-03-29T02:34:25.905Z,30.75
2023-03-29T02:37:01.484Z,30.76
2023-03-29T02:39:35.159Z,30.80
2023-03-29T02:42:05.838Z,30.82
2023-03-29T02:44:38.304Z,30.84
2023-03-29T02:47:12.764Z,30.87
2023-03-29T02:49:42.914Z,30.89
2023-03-29T02:52:16.362Z,30.92
2023-03-29T02:54:49.702Z,30.95
2023-03-29T02:57:23.460Z,30.98
2023-03-29T02:59:54.806Z,31.00
2023-03-29T03:02:29.156Z,31.03
2023-03-29T03:05:00.665Z,31.06
2023-03-29T03:07:31.180Z,31.08
2023-03-29T03:10:03.071Z,31.11
2023-03-29T03:12:34.108Z,31.14
2023-03-29T03:15:07.064Z,31.16
2023-03-29T03:17:41.364Z,31.20
2023-03-29T03:20:15.433Z,31.23
2023-03-29T03:22:51.192Z,31.24
2023-03-29T03:25:23.045Z,31.28
2023-03-29T03:27:53.909Z,31.30
2023-03-29T03:30:26.980Z,31.32
2023-03-29T03:33:20.839Z,31.35
2023-03-29T03:36:09.912Z,31.37
2023-03-29T03:38:40.454Z,30.99
2023-03-29T03:41:10.663Z,31.42
2023-03-29T03:43:44.325Z,31.44
2023-03-29T03:46:14.546Z,31.46
2023-03-29T03:48:47.624Z,31.48
2023-03-29T03:51:46.977Z,31.50
2023-03-29T03:54:17.825Z,31.52
2023-03-29T03:57:08.382Z,31.55
2023-03-29T03:59:46.245Z,31.55
2023-03-29T04:02:22.473Z,31.57
2023-03-29T04:04:52.770Z,31.59
2023-03-29T04:07:26.864Z,31.61
2023-03-29T04:10:15.500Z,31.61
2023-03-29T04:13:11.950Z,31.64
2023-03-29T04:16:02.405Z,31.65
2023-03-29T04:18:33.788Z,31.67
2023-03-29T04:21:04.339Z,31.69
2023-03-29T04:23:37.553Z,31.71
2023-03-29T04:26:09.283Z,31.74
2023-03-29T04:28:54.311Z,31.76
2023-03-29T04:31:37.389Z,31.79
2023-03-29T04:34:23.355Z,31.81
2023-03-29T04:36:56.406Z,31.84
2023-03-29T04:39:34.614Z,31.86
2023-03-29T04:42:07.888Z,31.88
2023-03-29T04:44:38.399Z,31.91
2023-03-29T04:47:14.788Z,31.93
2023-03-29T04:49:59.459Z,31.69
2023-03-29T04:52:52.330Z,31.99
2023-03-29T04:55:23.572Z,32.02
2023-03-29T04:58:04.292Z,32.05
2023-03-29T05:00:36.591Z,32.08
2023-03-29T05:03:52.766Z,32.11
2023-03-29T05:07:07.836Z,32.12
2023-03-29T05:09:38.936Z,32.16
2023-03-29T05:12:18.699Z,32.19
2023-03-29T05:14:54.897Z,32.21
2023-03-29T05:17:28.749Z,32.23
2023-03-29T05:20:13.027Z,32.27
2023-03-29T05:22:46.126Z,32.28
2023-03-29T05:25:29.801Z,32.32
2023-03-29T05:28:01.104Z,32.34
2023-03-29T05:30:31.700Z,32.37
2023-03-29T05:33:09.197Z,32.39
2023-03-29T05:35:39.286Z,32.42
2023-03-29T05:38:11.566Z,32.43
2023-03-29T05:40:42.905Z,32.47
2023-03-29T05:43:15.997Z,32.50
2023-03-29T05:45:46.393Z,32.52
2023-03-29T05:48:16.781Z,32.55
2023-03-29T05:50:49.924Z,32.58
2023-03-29T05:53:21.942Z,32.61
2023-03-29T05:55:52.744Z,32.64
2023-03-29T05:58:27.891Z,32.67
2023-03-29T06:00:58.069Z,32.70
2023-03-29T06:03:47.746Z,32.72
2023-03-29T06:06:20.543Z,32.76
2023-03-29T06:08:50.734Z,32.78
2023-03-29T06:11:36.357Z,32.82
2023-03-29T06:14:29.335Z,32.86
2023-03-29T06:17:12.513Z,32.89
2023-03-29T06:19:42.812Z,32.91
2023-03-29T06:22:14.920Z,32.97
2023-03-29T06:24:45.647Z,33.01
2023-03-29T06:27:25.411Z,33.05
2023-03-29T06:29:56.362Z,33.09
2023-03-29T06:32:27.140Z,33.12
2023-03-29T06:35:06.401Z,33.16
2023-03-29T06:37:50.715Z,33.21
2023-03-29T06:40:41.795Z,33.26
2023-03-29T06:43:13.332Z,33.31
2023-03-29T06:46:13.673Z,33.34
2023-03-29T06:49:03.000Z,33.39
2023-03-29T06:51:39.010Z,33.42
2023-03-29T06:54:09.189Z,33.45
2023-03-29T06:56:43.890Z,33.47
2023-03-29T06:59:17.987Z,33.51
2023-03-29T07:02:01.969Z,33.55
2023-03-29T07:05:02.952Z,33.56
2023-03-29T07:07:58.338Z,33.59
2023-03-29T07:11:00.800Z,33.63
2023-03-29T07:13:50.655Z,33.65
2023-03-29T07:16:23.253Z,33.70
2023-03-29T07:18:59.115Z,33.74
2023-03-29T07:21:56.020Z,33.83
2023-03-29T07:24:38.524Z,33.86
2023-03-29T07:27:10.246Z,33.91
2023-03-29T07:29:40.732Z,33.74
2023-03-29T07:32:11.820Z,33.99
2023-03-29T07:34:44.709Z,34.04
2023-03-29T07:37:23.106Z,34.07
2023-03-29T07:39:53.925Z,34.12
2023-03-29T07:42:45.402Z,34.17
2023-03-29T07:45:26.664Z,34.22
2023-03-29T07:48:02.793Z,34.25
2023-03-29T07:50:48.705Z,34.31
2023-03-29T07:53:22.547Z,34.35
2023-03-29T07:55:56.124Z,34.40
2023-03-29T07:58:49.195Z,34.44
2023-03-29T08:01:21.795Z,34.49
2023-03-29T08:04:07.548Z,34.53
2023-03-29T08:07:10.276Z,34.59
2023-03-29T08:10:03.250Z,34.64
2023-03-29T08:12:56.909Z,34.67
2023-03-29T08:15:35.115Z,34.74
2023-03-29T08:18:06.580Z,34.78
2023-03-29T08:20:37.015Z,34.82
2023-03-29T08:23:07.985Z,34.88
2023-03-29T08:25:57.263Z,34.92
2023-03-29T08:28:28.991Z,34.96
2023-03-29T08:30:59.130Z,35.01
2023-03-29T08:33:29.479Z,35.05
2023-03-29T08:36:18.181Z,35.09
2023-03-29T08:38:49.499Z,35.16
2023-03-29T08:41:44.503Z,35.19
2023-03-29T08:44:41.111Z,35.24
2023-03-29T08:47:31.508Z,35.30
2023-03-29T08:50:02.932Z,35.34
2023-03-29T08:52:56.863Z,35.37
2023-03-29T08:55:54.204Z,35.44
2023-03-29T08:58:39.934Z,35.48
2023-03-29T09:01:12.740Z,35.52
2023-03-29T09:04:16.601Z,35.56
2023-03-29T09:07:13.802Z,35.61
2023-03-29T09:09:48.730Z,35.65
2023-03-29T09:12:35.800Z,35.69
2023-03-29T09:15:12.924Z,35.73
2023-03-29T09:17:52.957Z,35.77
2023-03-29T09:20:25.265Z,35.80
2023-03-29T09:23:13.893Z,35.83
2023-03-29T09:26:20.131Z,35.85
2023-03-29T09:29:26.827Z,35.90
2023-03-29T09:31:58.146Z,35.92
2023-03-29T09:34:40.504Z,35.94
2023-03-29T09:37:27.553Z,35.95
2023-03-29T09:39:59.088Z,35.95
2023-03-29T09:42:46.073Z,35.96
2023-03-29T09:45:16.311Z,35.96
2023-03-29T09:47:50.717Z,35.97
2023-03-29T09:50:31.471Z,35.98
2023-03-29T09:53:06.371Z,35.97
2023-03-29T09:55:42.122Z,35.98
2023-03-29T09:58:38.863Z,35.95
2023-03-29T10:01:13.475Z,35.95
2023-03-29T10:03:44.147Z,35.95
2023-03-29T10:06:18.330Z,35.96
2023-03-29T10:08:56.500Z,35.95
2023-03-29T10:11:34.776Z,35.95
2023-03-29T10:14:14.138Z,35.94
2023-03-29T10:16:48.986Z,35.92
2023-03-29T10:19:24.144Z,35.90
2023-03-29T10:21:56.107Z,35.86
2023-03-29T10:24:28.194Z,35.56
2023-03-29T10:27:06.225Z,35.24
2023-03-29T10:29:42.683Z,35.02
2023-03-29T10:32:17.676Z,34.85
2023-03-29T10:34:49.220Z,34.71
2023-03-29T10:37:22.704Z,34.57
2023-03-29T10:39:55.710Z,34.50
2023-03-29T10:42:26.485Z,34.43
2023-03-29T10:44:58.091Z,34.33
2023-03-29T10:47:35.760Z,34.28
2023-03-29T10:50:07.498Z,34.21
2023-03-29T10:52:37.660Z,34.13
2023-03-29T10:55:08.031Z,34.12
2023-03-29T10:57:56.543Z,33.97
2023-03-29T11:00:34.760Z,33.96
2023-03-29T11:06:09.675Z,33.98
2023-03-29T11:09:15.591Z,33.96
2023-03-29T11:12:15.959Z,34.06
2023-03-29T11:15:10.335Z,34.29
2023-03-29T11:17:40.570Z,34.43
2023-03-29T11:20:21.117Z,34.55
2023-03-29T11:22:57.045Z,34.60
2023-03-29T11:25:33.612Z,34.63
2023-03-29T11:28:33.518Z,34.66
2023-03-29T11:31:18.363Z,34.67
2023-03-29T11:33:57.836Z,34.69
2023-03-29T11:36:35.596Z,34.69
2023-03-29T11:39:15.126Z,34.70
2023-03-29T11:41:47.773Z,34.69
2023-03-29T11:44:37.275Z,34.68
2023-03-29T11:47:11.718Z,34.66
2023-03-29T11:49:45.456Z,34.65
2023-03-29T11:52:19.007Z,34.64
2023-03-29T11:55:10.627Z,34.61
2023-03-29T11:57:49.791Z,34.41
2023-03-29T12:00:29.280Z,34.19
2023-03-29T12:03:16.915Z,34.03
2023-03-29T12:05:53.150Z,33.88
2023-03-29T12:08:27.083Z,33.76
2023-03-29T12:11:07.020Z,33.69
2023-03-29T12:13:46.393Z,33.61
2023-03-29T12:16:35.031Z,33.61
2023-03-29T12:19:08.883Z,33.58
2023-03-29T12:21:39.409Z,33.56
2023-03-29T12:24:14.515Z,33.65
2023-03-29T12:26:45.221Z,33.72
2023-03-29T12:29:15.565Z,33.68
2023-03-29T12:31:45.828Z,33.66
2023-03-29T12:34:36.555Z,33.74
2023-03-29T12:37:24.902Z,33.86
2023-03-29T12:40:27.674Z,33.29
2023-03-29T12:43:27.682Z,33.51
2023-03-29T12:46:20.690Z,33.28
2023-03-29T12:48:58.527Z,33.21
2023-03-29T12:51:34.055Z,33.18
2023-03-29T12:54:15.966Z,33.19
2023-03-29T12:56:57.316Z,33.16
2023-03-29T12:59:48.248Z,33.04
2023-03-29T13:02:21.351Z,32.81
2023-03-29T13:04:53.687Z,32.70
2023-03-29T13:07:24.254Z,32.58
2023-03-29T13:09:59.372Z,32.49
2023-03-29T13:12:42.411Z,32.43
2023-03-29T13:15:19.226Z,32.32
2023-03-29T13:17:55.932Z,32.21
2023-03-29T13:20:33.362Z,32.27
2023-03-29T13:23:22.557Z,32.32
2023-03-29T13:25:52.795Z,32.35
2023-03-29T13:28:38.613Z,32.33
2023-03-29T13:31:20.680Z,32.22
2023-03-29T13:33:54.160Z,32.10
2023-03-29T13:36:24.508Z,32.05
2023-03-29T13:38:57.035Z,32.00
2023-03-29T13:41:34.126Z,31.97
2023-03-29T13:44:05.203Z,31.89
2023-03-29T13:46:43.896Z,31.80
2023-03-29T13:49:17.705Z,31.72
2023-03-29T13:51:51.044Z,31.61
2023-03-29T13:54:45.712Z,31.61
2023-03-29T13:57:15.992Z,31.66
2023-03-29T13:59:49.813Z,31.65
2023-03-29T14:02:32.972Z,31.58
2023-03-29T14:05:08.248Z,31.56
2023-03-29T14:07:40.865Z,31.52
2023-03-29T14:10:15.777Z,31.46
2023-03-29T14:12:47.082Z,31.46
2023-03-29T14:15:23.122Z,31.35
2023-03-29T14:18:00.644Z,31.30
2023-03-29T14:20:33.515Z,31.26
2023-03-29T14:23:11.038Z,31.23
2023-03-29T14:25:46.525Z,31.16
2023-03-29T14:28:28.591Z,31.19
2023-03-29T14:31:03.249Z,31.13
2023-03-29T14:33:42.968Z,31.12
2023-03-29T14:36:19.515Z,31.12
2023-03-29T14:38:54.217Z,31.04
2023-03-29T14:41:40.704Z,31.06
2023-03-29T14:44:13.942Z,30.99
2023-03-29T14:46:49.510Z,30.93
2023-03-29T14:49:21.575Z,30.89
2023-03-29T14:51:56.315Z,30.81
2023-03-29T14:54:34.229Z,30.76
2023-03-29T14:57:10.517Z,30.71
2023-03-29T14:59:43.641Z,30.68
2023-03-29T15:02:28.199Z,30.64
2023-03-29T15:05:08.206Z,30.62
2023-03-29T15:07:43.676Z,30.61
2023-03-29T15:10:19.966Z,30.56
2023-03-29T15:12:51.814Z,30.55
2023-03-29T15:15:22.762Z,30.53
2023-03-29T15:17:53.722Z,30.54
2023-03-29T15:20:28.983Z,30.53
2023-03-29T15:23:06.155Z,30.50
2023-03-29T15:25:38.695Z,30.44
2023-03-29T15:28:27.562Z,30.44
2023-03-29T15:31:08.184Z,30.41
2023-03-29T15:33:40.894Z,30.39
2023-03-29T15:36:12.910Z,30.38
2023-03-29T15:38:45.438Z,30.36
2023-03-29T15:41:16.782Z,30.32
2023-03-29T15:43:47.734Z,30.31
2023-03-29T15:46:18.200Z,30.24
2023-03-29T15:48:48.505Z,30.25
2023-03-29T15:51:18.867Z,30.20
2023-03-29T15:53:49.055Z,30.16
2023-03-29T15:56:21.244Z,30.15
2023-03-29T15:58:52.402Z,30.13
2023-03-29T16:01:24.858Z,30.11
2023-03-29T16:03:55.077Z,30.20
2023-03-29T16:06:25.521Z,30.17
2023-03-29T16:08:57.358Z,30.11
2023-03-29T16:11:29.901Z,30.05
2023-03-29T16:14:00.274Z,29.97
2023-03-29T16:16:30.639Z,29.94
2023-03-29T16:19:01.083Z,29.87
2023-03-29T16:21:32.035Z,29.79
2023-03-29T16:24:03.025Z,29.75
2023-03-29T16:26:33.211Z,29.75
2023-03-29T16:29:03.508Z,29.69
2023-03-29T16:31:33.851Z,29.63
2023-03-29T16:34:05.087Z,29.59
2023-03-29T16:36:36.417Z,29.53
2023-03-29T16:39:07.519Z,29.49
2023-03-29T16:41:38.311Z,29.45
2023-03-29T16:44:08.614Z,29.40
2023-03-29T16:46:39.235Z,29.37
2023-03-29T16:49:12.980Z,29.33
2023-03-29T16:51:43.219Z,29.30
2023-03-29T16:54:13.540Z,29.28
2023-03-29T16:56:43.848Z,29.24
2023-03-29T16:59:14.559Z,29.22
2023-03-29T17:01:45.124Z,29.18
2023-03-29T17:04:15.442Z,29.13
2023-03-29T17:06:46.151Z,29.11
2023-03-29T17:09:18.210Z,29.09
2023-03-29T17:11:48.886Z,29.06
2023-03-29T17:14:19.064Z,29.04
2023-03-29T17:16:49.137Z,29.01
2023-03-29T17:19:19.192Z,28.99
2023-03-29T17:21:49.282Z,28.95
2023-03-29T17:24:19.526Z,28.93
2023-03-29T17:26:49.629Z,28.89
2023-03-29T17:29:20.202Z,28.89
2023-03-29T17:31:50.704Z,28.91
2023-03-29T17:34:21.174Z,28.87
2023-03-29T17:36:54.675Z,28.87
2023-03-29T17:39:26.568Z,28.87
2023-03-29T17:41:56.683Z,28.81
2023-03-29T17:44:28.366Z,28.79
2023-03-29T17:46:58.415Z,28.78
2023-03-29T17:49:28.558Z,28.74
2023-03-29T17:51:58.621Z,28.72
2023-03-29T17:54:28.728Z,28.71
2023-03-29T17:56:58.825Z,28.68
2023-03-29T17:59:29.581Z,28.65
2023-03-29T18:01:59.673Z,28.63
2023-03-29T18:04:29.737Z,28.61
2023-03-29T18:07:00.001Z,28.57
2023-03-29T18:09:30.864Z,28.54
2023-03-29T18:12:02.133Z,28.49
2023-03-29T18:14:32.386Z,28.47
2023-03-29T18:17:03.858Z,28.44
2023-03-29T18:19:33.989Z,28.49
2023-03-29T18:22:04.111Z,28.46
2023-03-29T18:24:34.224Z,28.45
2023-03-29T18:27:04.381Z,28.42
2023-03-29T18:29:34.437Z,28.43
2023-03-29T18:32:06.004Z,28.41
2023-03-29T18:34:36.188Z,28.38
2023-03-29T18:37:07.442Z,28.35
2023-03-29T18:39:37.459Z,28.35
2023-03-29T18:42:08.755Z,28.35
2023-03-29T18:44:41.641Z,28.32
2023-03-29T18:47:11.789Z,28.30
2023-03-29T18:49:42.195Z,28.26
2023-03-29T18:52:12.335Z,28.25
2023-03-29T18:54:43.104Z,28.26
2023-03-29T18:57:13.529Z,28.28
2023-03-29T18:59:43.623Z,28.22
2023-03-29T19:02:14.169Z,28.21
2023-03-29T19:04:44.313Z,28.19
2023-03-29T19:07:14.889Z,28.22
2023-03-29T19:09:45.153Z,28.18
2023-03-29T19:12:15.214Z,28.19
2023-03-29T19:14:45.362Z,27.50
2023-03-29T19:17:15.945Z,28.15
2023-03-29T19:19:46.054Z,28.13
2023-03-29T19:22:16.249Z,28.13
2023-03-29T19:24:46.930Z,28.10
2023-03-29T19:27:16.956Z,28.09
2023-03-29T19:29:47.591Z,28.11
2023-03-29T19:32:17.796Z,28.07
2023-03-29T19:34:49.036Z,28.07
2023-03-29T19:37:19.199Z,28.08
2023-03-29T19:39:49.665Z,28.06
2023-03-29T19:42:19.703Z,28.02
2023-03-29T19:44:49.728Z,28.02
2023-03-29T19:47:19.858Z,28.01
2023-03-29T19:49:50.687Z,27.99
2023-03-29T19:52:24.989Z,27.98
2023-03-29T19:54:55.660Z,27.94
2023-03-29T19:57:26.347Z,27.94
2023-03-29T19:59:56.538Z,27.91
2023-03-29T20:02:26.878Z,27.88
2023-03-29T20:04:59.051Z,27.85
2023-03-29T20:07:29.131Z,27.85
2023-03-29T20:09:59.238Z,27.83
2023-03-29T20:12:29.233Z,27.82
2023-03-29T20:14:59.270Z,27.79
2023-03-29T20:17:29.986Z,27.79
2023-03-29T20:20:00.482Z,27.82
2023-03-29T20:22:32.615Z,27.76
2023-03-29T20:25:02.701Z,27.76
2023-03-29T20:27:33.058Z,27.73
2023-03-29T20:30:03.231Z,27.74
2023-03-29T20:32:33.515Z,27.77
2023-03-29T20:35:03.569Z,27.75
2023-03-29T20:37:34.324Z,27.71
2023-03-29T20:40:06.808Z,27.70
2023-03-29T20:42:38.159Z,27.72
2023-03-29T20:45:09.457Z,27.70
2023-03-29T20:47:43.679Z,27.69
2023-03-29T20:50:13.755Z,27.65
2023-03-29T20:52:44.002Z,27.63
2023-03-29T20:55:14.694Z,27.65
2023-03-29T20:57:44.893Z,27.66
2023-03-29T21:00:15.968Z,27.62
2023-03-29T21:02:46.114Z,27.61
2023-03-29T21:05:17.165Z,27.60
2023-03-29T21:07:49.387Z,27.56
2023-03-29T21:10:19.510Z,27.57
2023-03-29T21:12:49.924Z,27.56
2023-03-29T21:15:20.151Z,27.57
2023-03-29T21:17:50.242Z,27.58
2023-03-29T21:20:20.473Z,27.57
2023-03-29T21:22:50.996Z,27.52
2023-03-29T21:25:21.324Z,27.51
2023-03-29T21:27:51.335Z,27.50
2023-03-29T21:30:21.443Z,27.47
2023-03-29T21:32:51.654Z,27.44
2023-03-29T21:35:22.100Z,27.45
2023-03-29T21:37:52.409Z,27.43
2023-03-29T21:40:22.636Z,27.44
2023-03-29T21:42:53.794Z,27.46
2023-03-29T21:45:23.914Z,27.44
2023-03-29T21:47:54.290Z,27.44
2023-03-29T21:50:24.906Z,27.42
2023-03-29T21:52:54.918Z,27.39
2023-03-29T21:55:24.930Z,27.40
2023-03-29T21:57:55.184Z,27.41
2023-03-29T22:00:25.382Z,27.41
2023-03-29T22:02:55.495Z,27.37
2023-03-29T22:05:27.479Z,27.34
2023-03-29T22:08:35.768Z,27.34
2023-03-29T22:11:08.858Z,27.31
2023-03-29T22:13:39.240Z,27.31
2023-03-29T22:16:19.669Z,27.26
2023-03-29T22:18:53.973Z,27.22
2023-03-29T22:21:25.808Z,27.22
2023-03-29T22:23:59.768Z,27.24
2023-03-29T22:26:31.358Z,27.26
2023-03-29T22:29:02.804Z,27.26
2023-03-29T22:31:33.268Z,27.26
2023-03-29T22:34:04.196Z,27.29
2023-03-29T22:36:34.598Z,27.08
2023-03-29T22:39:05.267Z,27.27
2023-03-29T22:41:35.345Z,27.28
2023-03-29T22:44:05.891Z,27.29
2023-03-29T22:46:36.158Z,27.28
2023-03-29T22:49:06.321Z,27.28
2023-03-29T22:51:36.386Z,27.29
2023-03-29T22:54:06.717Z,27.30
2023-03-29T22:56:37.071Z,27.29
2023-03-29T22:59:07.311Z,27.27
2023-03-29T23:01:37.378Z,27.24
2023-03-29T23:04:07.860Z,27.36
2023-03-29T23:06:38.045Z,27.50
2023-03-29T23:09:08.304Z,27.63
2023-03-29T23:11:38.428Z,27.78
2023-03-29T23:14:09.057Z,27.87
2023-03-29T23:16:39.311Z,27.98
2023-03-29T23:19:09.906Z,28.05
2023-03-29T23:21:40.518Z,28.14
2023-03-29T23:24:11.044Z,28.23
2023-03-29T23:26:41.229Z,28.30
2023-03-29T23:29:11.374Z,28.36
2023-03-29T23:31:41.499Z,28.48
2023-03-29T23:34:12.073Z,28.65
2023-03-29T23:36:42.322Z,28.79
2023-03-29T23:39:12.417Z,28.90
2023-03-29T23:41:42.736Z,29.00
2023-03-29T23:44:12.807Z,29.06
2023-03-29T23:46:43.427Z,29.14
2023-03-29T23:49:13.680Z,29.16
2023-03-29T23:51:46.275Z,29.11
2023-03-29T23:54:16.694Z,29.10
2023-03-29T23:56:46.865Z,29.11
2023-03-29T23:59:17.260Z,29.12
